Time;durP1;ratioP1;P1;durP2;ratioP2;P2;SDS_P1;SDS_P2;PMS_P1;PMS_P2;Temp;Humidity;BMP_temperature;BMP_pressure;BME280_temperature;BME280_humidity;BME280_pressure;Samples;Min_cycle;Max_cycle;Signal;HPM_P1;HPM_P2
2022/07/03 00:01:54;;;;;;;5.40;5.20;;;;;;;17.61;74.94;101514.34;6027622;23;20037;-67
2022/07/03 00:04:21;;;;;;;6.63;6.32;;;;;;;17.51;75.86;101525.59;5998621;23;20513;-67
2022/07/03 00:06:48;;;;;;;5.30;5.10;;;;;;;17.51;76.20;101522.09;6024920;23;20123;-66
2022/07/03 00:09:15;;;;;;;7.03;6.72;;;;;;;17.37;77.03;101511.56;6025043;23;20034;-64
2022/07/03 00:11:42;;;;;;;5.45;5.15;;;;;;;17.00;77.00;101472.47;5998702;23;20075;-66
2022/07/03 00:14:09;;;;;;;5.47;5.18;;;;;;;16.14;76.90;101335.88;6021089;23;20030;-65
2022/07/03 00:16:35;;;;;;;5.47;5.28;;;;;;;17.27;77.38;101528.09;6030384;23;20034;-65
2022/07/03 00:19:03;;;;;;;5.68;5.38;;;;;;;17.20;78.14;101513.56;6023812;23;20027;-66
2022/07/03 00:21:35;;;;;;;5.47;5.20;;;;;;;17.13;78.99;101510.47;6032137;23;20832;-66
2022/07/03 00:24:08;;;;;;;5.55;5.25;;;;;;;17.12;78.68;101516.72;5998106;23;20044;-66
2022/07/03 00:26:38;;;;;;;5.60;5.30;;;;;;;17.04;80.24;101516.38;6029532;23;20074;-65
2022/07/03 00:29:07;;;;;;;5.57;5.32;;;;;;;16.30;80.35;101424.91;6022415;23;20019;-66
2022/07/03 00:31:33;;;;;;;5.35;5.15;;;;;;;16.95;80.91;101533.75;5994839;23;20076;-66
2022/07/03 00:34:01;;;;;;;5.30;5.10;;;;;;;16.93;80.88;101534.81;6031539;23;20742;-66
2022/07/03 00:36:33;;;;;;;6.25;5.95;;;;;;;16.96;80.61;101545.22;6028561;23;20031;-67
2022/07/03 00:39:00;;;;;;;5.20;5.00;;;;;;;16.90;80.90;101521.75;6023038;23;20093;-65
2022/07/03 00:41:30;;;;;;;6.75;6.45;;;;;;;17.08;79.91;101535.59;6030659;23;20033;-67
2022/07/03 00:43:57;;;;;;;5.13;4.93;;;;;;;17.15;79.70;101542.19;6022189;23;20487;-65
2022/07/03 00:46:26;;;;;;;7.28;6.88;;;;;;;16.75;80.21;101459.94;6022452;23;20521;-66
2022/07/03 00:48:54;;;;;;;5.18;4.97;;;;;;;17.25;79.69;101526.50;6005978;23;20031;-65
2022/07/03 00:51:28;;;;;;;6.82;6.53;;;;;;;17.24;79.49;101507.09;6026091;23;20203;-65
2022/07/03 00:53:57;;;;;;;5.15;4.95;;;;;;;17.18;79.36;101490.72;6005673;23;20441;-65
2022/07/03 00:56:26;;;;;;;6.88;6.57;;;;;;;17.31;78.94;101518.97;6022242;23;20036;-66
2022/07/03 00:58:55;;;;;;;5.20;5.00;;;;;;;17.13;79.17;101483.94;6029165;23;20075;-66
2022/07/03 01:01:26;;;;;;;6.95;6.65;;;;;;;17.22;79.53;101498.41;6022710;23;20031;-66
2022/07/03 01:04:09;;;;;;;5.20;5.00;;;;;;;17.12;80.37;101522.03;6021429;23;20022;-65
2022/07/03 01:06:50;;;;;;;5.70;5.40;;;;;;;17.05;80.63;101507.47;6024794;23;20335;-68
2022/07/03 01:09:26;;;;;;;6.93;6.63;;;;;;;16.99;81.22;101502.56;6016594;23;20353;-65
2022/07/03 01:12:06;;;;;;;5.80;5.50;;;;;;;16.91;81.03;101494.28;6023945;23;20030;-65
2022/07/03 01:14:52;;;;;;;5.50;5.30;;;;;;;16.85;81.71;101486.72;6034871;23;20058;-67
2022/07/03 01:17:28;;;;;;;6.25;5.95;;;;;;;16.45;81.75;101454.84;6018833;23;20068;-67
2022/07/03 01:20:03;;;;;;;5.35;5.15;;;;;;;16.70;82.11;101481.47;6031859;23;20102;-65
2022/07/03 01:22:54;;;;;;;5.70;5.40;;;;;;;16.63;83.38;101490.75;6026558;23;20031;-69
2022/07/03 01:25:37;;;;;;;6.82;6.53;;;;;;;15.39;84.24;101311.53;5999628;23;20061;-68
2022/07/03 01:28:12;;;;;;;5.10;4.90;;;;;;;16.14;84.76;101449.72;6031139;23;20184;-69
2022/07/03 01:30:46;;;;;;;6.10;5.80;;;;;;;16.40;84.47;101483.44;6022619;23;20025;-69
2022/07/03 01:33:22;;;;;;;5.82;5.53;;;;;;;16.37;84.77;101481.00;5990297;23;20019;-72
2022/07/03 01:36:00;;;;;;;5.20;5.00;;;;;;;16.37;85.59;101473.03;6023202;23;20019;-71
2022/07/03 01:38:33;;;;;;;5.35;5.15;;;;;;;16.37;86.05;101481.00;6024891;23;20535;-69
2022/07/03 01:41:01;;;;;;;5.35;5.15;;;;;;;15.93;86.31;101421.97;6022942;23;20013;-70
2022/07/03 01:43:34;;;;;;;17.38;16.48;;;;;;;15.24;85.97;101323.06;5917608;23;20291;-70
2022/07/03 01:46:03;;;;;;;5.18;4.97;;;;;;;15.35;86.41;101332.03;6023596;23;20011;-69
2022/07/03 01:48:31;;;;;;;5.32;5.13;;;;;;;16.22;86.77;101472.25;6020659;23;20021;-68
2022/07/03 01:50:59;;;;;;;4.78;4.57;;;;;;;15.84;87.32;101411.97;6027207;23;20112;-69
2022/07/03 01:53:28;;;;;;;6.75;6.45;;;;;;;16.12;87.93;101480.75;6017390;23;20025;-69
2022/07/03 01:55:57;;;;;;;5.30;5.10;;;;;;;16.06;89.08;101482.94;6027720;23;20255;-69
2022/07/03 01:58:24;;;;;;;6.70;6.40;;;;;;;15.88;90.60;101477.00;6021610;23;20090;-69
2022/07/03 02:00:57;;;;;;;5.65;5.35;;;;;;;15.89;92.39;101484.81;5968359;23;20098;-69
2022/07/03 02:03:29;;;;;;;6.38;6.07;;;;;;;15.79;93.07;101491.63;6022089;23;20209;-68
2022/07/03 02:06:07;;;;;;;5.30;5.00;;;;;;;15.81;93.07;101496.84;5991708;23;20015;-68
2022/07/03 02:08:39;;;;;;;5.10;4.90;;;;;;;15.80;93.36;101489.88;6013453;23;20126;-68
2022/07/03 02:11:18;;;;;;;5.50;5.10;;;;;;;15.81;92.88;101500.34;6003133;23;20457;-69
2022/07/03 02:14:24;;;;;;;5.10;4.90;;;;;;;15.78;92.69;101484.66;6018783;23;20019;-71
2022/07/03 02:17:02;;;;;;;5.00;4.80;;;;;;;15.79;93.00;101498.75;5965250;23;20039;-68
2022/07/03 02:19:42;;;;;;;6.38;5.97;;;;;;;15.59;93.22;101465.53;5942554;23;20269;-68
2022/07/03 02:22:11;;;;;;;5.20;5.00;;;;;;;15.83;92.15;101500.25;6005962;23;20051;-70
2022/07/03 02:24:47;;;;;;;5.20;5.00;;;;;;;15.83;91.94;101490.50;6017979;23;20030;-69
2022/07/03 02:27:20;;;;;;;6.43;6.13;;;;;;;15.74;91.58;101464.63;6024504;23;20011;-69
2022/07/03 02:29:50;;;;;;;5.05;4.85;;;;;;;15.82;92.49;101496.75;6023719;23;20043;-69
2022/07/03 02:32:22;;;;;;;6.57;6.28;;;;;;;15.46;92.62;101437.19;6014088;23;20168;-69
2022/07/03 02:35:21;;;;;;;5.10;4.90;;;;;;;15.79;92.17;101481.06;6022417;23;20031;-68
2022/07/03 02:37:55;;;;;;;5.20;5.00;;;;;;;15.80;92.16;101482.78;6029236;23;20290;-69
2022/07/03 02:40:28;;;;;;;6.72;6.43;;;;;;;15.79;91.31;101478.41;6029667;23;20198;-69
2022/07/03 02:42:58;;;;;;;5.00;4.80;;;;;;;15.78;91.26;101481.16;6026570;23;20113;-69
2022/07/03 02:45:36;;;;;;;6.07;5.78;;;;;;;15.42;91.10;101433.00;6016541;23;20484;-69
2022/07/03 02:48:10;;;;;;;5.10;4.90;;;;;;;15.74;91.88;101491.94;6041141;23;20022;-69
2022/07/03 02:50:39;;;;;;;5.35;5.15;;;;;;;14.92;92.38;101358.44;6027036;23;20915;-69
2022/07/03 02:53:33;;;;;;;4.78;4.57;;;;;;;15.63;93.67;101491.69;6022414;23;20026;-69
2022/07/03 02:56:14;;;;;;;5.03;4.82;;;;;;;15.59;94.15;101484.03;6025096;23;20484;-70
2022/07/03 02:59:12;;;;;;;4.95;4.75;;;;;;;15.59;93.62;101503.41;6023694;23;20078;-69
2022/07/03 03:01:48;;;;;;;5.13;4.93;;;;;;;15.41;93.92;101462.19;6013840;23;20540;-70
2022/07/03 03:04:31;;;;;;;6.63;6.30;;;;;;;15.51;94.18;101484.50;6018928;23;20026;-68
2022/07/03 03:07:07;;;;;;;5.55;5.22;;;;;;;15.43;94.22;101490.25;6000763;23;20026;-68
2022/07/03 03:09:45;;;;;;;5.10;4.90;;;;;;;15.38;95.59;101480.91;6021057;23;20037;-69
2022/07/03 03:12:13;;;;;;;5.50;5.28;;;;;;;15.29;95.35;101490.22;6025518;23;20186;-69
2022/07/03 03:14:43;;;;;;;5.07;4.88;;;;;;;15.30;95.05;101484.00;6024671;23;20329;-69
2022/07/03 03:17:16;;;;;;;5.10;4.90;;;;;;;15.27;94.89;101495.59;6018150;23;20011;-70
2022/07/03 03:19:47;;;;;;;4.97;4.78;;;;;;;15.24;95.25;101502.88;6035397;23;20230;-69
2022/07/03 03:22:31;;;;;;;5.55;5.32;;;;;;;15.20;95.72;101491.63;6021257;23;20070;-68
2022/07/03 03:24:58;;;;;;;5.00;4.80;;;;;;;15.18;96.06;101497.97;6016618;23;20014;-69
2022/07/03 03:27:25;;;;;;;6.65;6.35;;;;;;;14.66;95.80;101412.00;6026538;23;20018;-71
2022/07/03 03:29:51;;;;;;;5.10;4.90;;;;;;;14.75;97.07;101444.00;6017791;23;20530;-67
2022/07/03 03:32:20;;;;;;;6.88;6.57;;;;;;;14.88;98.42;101507.56;6007647;23;20025;-65
2022/07/03 03:34:47;;;;;;;5.18;4.97;;;;;;;15.00;99.69;101500.72;6011941;23;20011;-70
2022/07/03 03:37:14;;;;;;;6.25;5.95;;;;;;;14.77;100.00;101480.91;6022621;23;20029;-70
2022/07/03 03:39:41;;;;;;;5.07;4.88;;;;;;;14.96;100.00;101530.91;6025977;23;20015;-69
2022/07/03 03:42:08;;;;;;;4.97;4.78;;;;;;;14.85;100.00;101480.47;6023825;23;20425;-68
2022/07/03 03:44:35;;;;;;;5.10;4.90;;;;;;;15.02;99.87;101509.41;6017094;23;21746;-72
2022/07/03 03:47:02;;;;;;;5.38;5.18;;;;;;;14.86;98.92;101466.31;6026109;23;20453;-68
2022/07/03 03:49:29;;;;;;;5.85;5.55;;;;;;;15.00;98.55;101476.09;6017872;23;20452;-70
2022/07/03 03:51:56;;;;;;;4.93;4.72;;;;;;;15.21;97.19;101513.63;6026448;23;20104;-70
2022/07/03 03:54:23;;;;;;;5.70;5.47;;;;;;;15.29;96.02;101500.81;6018062;23;20086;-69
2022/07/03 03:56:49;;;;;;;5.10;4.90;;;;;;;15.34;96.18;101514.63;6024116;23;20011;-67
2022/07/03 03:59:16;;;;;;;6.63;6.32;;;;;;;15.41;95.48;101518.59;6020851;23;20100;-66
2022/07/03 04:01:42;;;;;;;5.38;5.18;;;;;;;15.46;94.98;101513.88;6020252;23;20090;-72
2022/07/03 04:04:12;;;;;;;5.28;4.97;;;;;;;14.89;93.94;101415.91;6017785;23;20022;-65
2022/07/03 04:06:38;;;;;;;4.90;4.70;;;;;;;15.28;93.30;101478.81;6002291;23;20065;-74
2022/07/03 04:09:05;;;;;;;5.03;4.82;;;;;;;15.63;93.09;101515.50;6019761;23;20666;-69
2022/07/03 04:11:31;;;;;;;5.70;5.50;;;;;;;15.72;92.37;101543.22;6029495;23;20082;-67
2022/07/03 04:13:58;;;;;;;5.00;4.80;;;;;;;16.13;91.82;101532.75;6020713;23;20030;-66
2022/07/03 04:16:24;;;;;;;6.28;5.97;;;;;;;15.56;89.00;101335.13;6028189;23;20243;-70
2022/07/03 04:18:51;;;;;;;5.40;5.20;;;;;;;17.45;86.43;101531.31;6020038;23;20041;-71
2022/07/03 04:21:17;;;;;;;6.95;6.65;;;;;;;18.48;81.91;101558.72;6033105;23;20245;-71
2022/07/03 04:23:43;;;;;;;5.30;5.10;;;;;;;19.23;77.70;101575.47;6027630;23;20097;-73
2022/07/03 04:26:10;;;;;;;5.65;5.43;;;;;;;18.42;75.04;101340.34;6024535;23;20473;-76
2022/07/03 04:28:41;;;;;;;5.82;5.53;;;;;;;20.48;71.45;101585.34;6023297;23;20039;-70
2022/07/03 04:31:08;;;;;;;5.28;5.07;;;;;;;20.12;68.46;101462.88;5995861;23;20617;-74
2022/07/03 04:33:34;;;;;;;5.80;5.50;;;;;;;20.65;66.31;101600.91;6010665;23;20082;-68
2022/07/03 04:36:00;;;;;;;5.55;5.32;;;;;;;21.05;65.43;101589.63;6004289;23;20377;-66
2022/07/03 04:38:27;;;;;;;6.95;6.57;;;;;;;21.08;64.79;101594.72;6020451;23;20017;-72
2022/07/03 04:40:57;;;;;;;5.40;5.20;;;;;;;21.19;63.45;101564.47;6031459;23;20031;-67
2022/07/03 04:43:23;;;;;;;6.80;6.50;;;;;;;21.97;61.55;101593.53;6022134;23;20035;-67
2022/07/03 04:45:49;;;;;;;5.63;5.32;;;;;;;22.52;59.93;101612.00;6025965;23;20352;-73
2022/07/03 04:48:16;;;;;;;6.28;5.97;;;;;;;23.15;57.18;101620.59;6027717;23;20026;-72
2022/07/03 04:50:42;;;;;;;5.80;5.50;;;;;;;22.38;54.84;101450.06;6023771;23;20023;-73
2022/07/03 04:53:10;;;;;;;6.03;5.55;;;;;;;24.03;52.93;101623.22;6001736;23;20039;-67
2022/07/03 04:55:37;;;;;;;5.75;5.47;;;;;;;24.44;52.12;101623.78;6031892;23;20026;-71
2022/07/03 04:58:03;;;;;;;5.50;5.30;;;;;;;24.63;50.44;101625.53;6037643;23;20396;-72
2022/07/03 05:00:29;;;;;;;6.13;5.82;;;;;;;25.13;48.44;101625.06;6011326;23;20031;-72
2022/07/03 05:02:56;;;;;;;6.00;5.70;;;;;;;25.65;48.30;101619.00;6030155;23;20086;-67
2022/07/03 05:05:23;;;;;;;6.57;6.18;;;;;;;25.46;48.34;101623.56;6027921;23;20034;-67
2022/07/03 05:07:50;;;;;;;6.10;5.80;;;;;;;25.36;48.62;101638.06;6001695;23;20092;-67
2022/07/03 05:10:16;;;;;;;5.60;5.35;;;;;;;25.08;46.76;101616.66;6030802;23;20031;-68
2022/07/03 05:12:42;;;;;;;5.70;5.40;;;;;;;24.81;48.14;101612.16;6001838;23;20190;-71
2022/07/03 05:15:09;;;;;;;5.85;5.55;;;;;;;23.43;50.79;101526.97;6023826;23;20120;-67
2022/07/03 05:17:36;;;;;;;5.72;5.43;;;;;;;24.02;52.09;101595.56;6028482;23;20099;-73
2022/07/03 05:22:49;;;;;;;5.97;5.50;;;;;;;25.19;49.32;101621.78;6025087;23;20082;-68
2022/07/03 05:25:16;;;;;;;6.97;6.63;;;;;;;25.44;47.43;101544.94;6015478;23;20112;-67
2022/07/03 05:27:42;;;;;;;6.00;5.60;;;;;;;26.29;46.57;101637.59;6024914;23;20433;-73
2022/07/03 05:30:10;;;;;;;5.80;5.50;;;;;;;25.47;45.84;101498.09;6026100;23;20140;-73
2022/07/03 05:32:36;;;;;;;5.78;5.53;;;;;;;26.74;45.16;101647.22;6022610;23;20942;-66
2022/07/03 05:35:04;;;;;;;5.97;5.68;;;;;;;26.68;44.35;101971.84;6019756;23;20015;-71
2022/07/03 05:37:30;;;;;;;6.15;5.85;;;;;;;26.45;43.38;101738.09;6025967;23;20521;-70
2022/07/03 05:39:57;;;;;;;6.10;5.80;;;;;;;26.84;44.10;101681.13;6028584;23;20015;-71
2022/07/03 05:42:23;;;;;;;7.65;7.25;;;;;;;26.49;43.12;101622.88;6024114;23;20092;-72
2022/07/03 05:44:50;;;;;;;5.90;5.60;;;;;;;26.64;44.11;101882.50;6026850;23;20585;-73
2022/07/03 05:47:16;;;;;;;6.82;6.47;;;;;;;27.08;42.81;101797.19;6027464;23;20022;-74
2022/07/03 05:49:43;;;;;;;5.90;5.60;;;;;;;26.67;43.48;101647.03;6025232;23;20021;-68
2022/07/03 05:52:10;;;;;;;5.88;5.57;;;;;;;25.80;44.07;101635.41;6027271;23;20038;-67
2022/07/03 05:54:36;;;;;;;6.05;5.75;;;;;;;26.70;43.95;101619.81;6021784;23;20026;-67
2022/07/03 05:57:04;;;;;;;5.97;5.68;;;;;;;26.72;42.79;101590.88;6028845;23;20023;-67
2022/07/03 05:59:31;;;;;;;6.60;6.30;;;;;;;27.26;41.96;101620.09;5994013;23;20272;-67
2022/07/03 06:01:57;;;;;;;6.38;5.90;;;;;;;26.72;42.54;101595.38;6024818;23;20015;-68
2022/07/03 06:04:23;;;;;;;6.82;6.53;;;;;;;26.15;43.26;101578.00;5993194;23;20034;-71
2022/07/03 06:06:50;;;;;;;6.28;5.90;;;;;;;24.76;44.75;101434.59;6021219;23;20071;-72
2022/07/03 06:09:16;;;;;;;7.18;6.88;;;;;;;25.93;44.61;102135.31;6021190;23;20037;-73
2022/07/03 06:11:43;;;;;;;6.25;5.95;;;;;;;26.36;44.69;101746.28;6002951;23;20041;-72
2022/07/03 06:14:09;;;;;;;6.43;6.00;;;;;;;26.50;43.47;101694.56;6031900;23;20018;-73
2022/07/03 06:16:36;;;;;;;6.22;5.93;;;;;;;26.66;44.28;101980.13;6000045;23;20011;-70
2022/07/03 06:19:02;;;;;;;5.80;5.50;;;;;;;26.37;44.29;101732.69;6034641;23;20038;-71
2022/07/03 06:21:29;;;;;;;5.75;5.45;;;;;;;26.97;43.54;101634.00;6028487;23;20037;-71
2022/07/03 06:23:55;;;;;;;6.10;5.80;;;;;;;27.44;42.80;101647.75;6001508;23;20021;-74
2022/07/03 06:26:22;;;;;;;6.13;5.82;;;;;;;27.98;42.06;101659.88;6028681;23;20019;-71
2022/07/03 06:28:48;;;;;;;6.03;5.72;;;;;;;27.61;41.10;101648.56;6008040;23;20089;-74
2022/07/03 06:31:14;;;;;;;6.28;5.97;;;;;;;27.07;41.74;101648.16;6026839;23;20037;-71
2022/07/03 06:33:41;;;;;;;6.13;5.80;;;;;;;26.28;43.37;101623.31;6018905;23;20275;-74
2022/07/03 06:36:07;;;;;;;6.10;5.80;;;;;;;25.67;44.92;101574.81;5996291;23;20104;-74
2022/07/03 06:38:34;;;;;;;6.07;5.78;;;;;;;25.07;46.58;101586.22;6023128;23;20015;-71
2022/07/03 06:41:00;;;;;;;6.28;5.97;;;;;;;24.15;48.72;101603.25;6024084;23;20021;-72
2022/07/03 06:43:27;;;;;;;6.22;5.93;;;;;;;23.98;50.13;101590.66;5996190;23;20030;-73
2022/07/03 06:45:53;;;;;;;6.40;6.10;;;;;;;23.74;51.30;101599.13;6022568;23;20018;-73
2022/07/03 06:48:20;;;;;;;8.32;7.82;;;;;;;23.69;50.74;101596.88;6018795;23;20440;-72
2022/07/03 06:50:46;;;;;;;6.60;6.30;;;;;;;23.40;50.82;101581.69;6016144;23;20057;-71
2022/07/03 06:53:13;;;;;;;6.75;6.35;;;;;;;23.26;52.90;101571.41;6018899;23;20019;-73
2022/07/03 06:55:39;;;;;;;6.05;5.75;;;;;;;23.39;50.90;101596.06;6022198;23;20022;-73
2022/07/03 06:58:06;;;;;;;6.05;5.75;;;;;;;23.29;50.57;101590.72;6021630;23;20101;-71
2022/07/03 07:00:32;;;;;;;5.97;5.68;;;;;;;23.41;51.00;101588.72;6023183;23;20437;-71
2022/07/03 07:02:59;;;;;;;6.35;6.00;;;;;;;23.32;50.61;101594.13;6021497;23;20021;-70
2022/07/03 07:05:26;;;;;;;7.78;7.38;;;;;;;22.84;52.10;101580.50;6016112;23;20047;-71
2022/07/03 07:07:52;;;;;;;6.15;5.85;;;;;;;22.70;53.61;101576.41;6023301;23;20038;-71
2022/07/03 07:10:19;;;;;;;7.20;6.80;;;;;;;22.92;53.26;101593.19;6018919;23;20042;-74
2022/07/03 07:12:45;;;;;;;6.00;5.70;;;;;;;23.08;52.27;101576.63;6024470;23;20467;-73
2022/07/03 07:15:12;;;;;;;6.57;6.25;;;;;;;23.18;51.28;101579.31;6015982;23;20031;-74
2022/07/03 07:17:38;;;;;;;6.20;5.88;;;;;;;22.27;51.58;101417.13;5989263;23;20114;-68
2022/07/03 07:20:05;;;;;;;6.38;6.07;;;;;;;23.43;51.83;101575.19;6023825;23;20018;-67
2022/07/03 07:22:32;;;;;;;6.13;5.82;;;;;;;23.56;51.23;101599.03;6013153;23;21191;-67
2022/07/03 07:24:58;;;;;;;6.15;5.85;;;;;;;23.05;51.64;101567.06;5985567;23;20023;-69
2022/07/03 07:27:25;;;;;;;7.80;7.40;;;;;;;22.47;52.83;101518.75;6012512;23;20188;-70
2022/07/03 07:29:51;;;;;;;5.93;5.63;;;;;;;22.37;54.14;101504.53;6017426;23;20290;-73
2022/07/03 07:32:18;;;;;;;7.35;7.05;;;;;;;22.72;54.05;101572.75;6015560;23;20011;-74
2022/07/03 07:34:45;;;;;;;6.40;6.10;;;;;;;21.48;55.51;101419.66;6018899;23;20023;-74
2022/07/03 07:37:11;;;;;;;6.82;6.43;;;;;;;22.61;55.85;101576.38;5999532;23;20083;-73
2022/07/03 07:39:38;;;;;;;5.88;5.57;;;;;;;21.43;56.96;101425.41;5993720;23;20141;-73
2022/07/03 07:42:04;;;;;;;6.40;6.00;;;;;;;22.46;55.48;101570.56;6024665;23;20111;-69
2022/07/03 07:44:31;;;;;;;6.63;6.32;;;;;;;22.59;54.01;101573.84;6017607;23;20022;-68
2022/07/03 07:46:57;;;;;;;6.10;5.80;;;;;;;22.75;53.50;101593.88;6020876;23;20042;-75
2022/07/03 07:49:24;;;;;;;7.07;6.78;;;;;;;22.95;52.26;101587.56;6026099;23;20062;-73
2022/07/03 07:51:51;;;;;;;6.10;5.70;;;;;;;23.15;51.68;101590.28;6022466;23;20093;-72
2022/07/03 07:54:17;;;;;;;7.00;6.70;;;;;;;23.06;50.77;101560.69;6019381;23;20145;-66
2022/07/03 07:56:44;;;;;;;6.00;5.70;;;;;;;23.50;51.04;101598.59;6027014;23;20516;-69
2022/07/03 07:59:10;;;;;;;5.43;5.22;;;;;;;23.67;49.71;101607.75;6021264;23;20050;-74
2022/07/03 08:07:06;;;;;;;5.90;5.60;;;;;;;22.98;50.19;101563.19;5991888;23;20712;-71
2022/07/03 08:09:32;;;;;;;5.68;5.45;;;;;;;23.03;51.22;101566.34;6028427;23;20027;-68
2022/07/03 08:11:59;;;;;;;5.40;5.20;;;;;;;23.37;51.04;101571.25;6021162;23;20082;-71
2022/07/03 08:14:25;;;;;;;7.30;6.80;;;;;;;23.60;50.64;101592.38;6020152;23;20015;-67
2022/07/03 08:16:52;;;;;;;5.78;5.47;;;;;;;23.87;48.66;101589.84;6024739;23;20014;-70
2022/07/03 08:19:18;;;;;;;8.05;7.43;;;;;;;23.92;49.15;101591.22;6022549;23;20018;-73
2022/07/03 08:21:45;;;;;;;5.60;5.30;;;;;;;23.91;48.84;101576.13;6030584;23;20094;-69
2022/07/03 08:24:12;;;;;;;6.28;5.80;;;;;;;24.01;47.78;101601.91;6022868;23;20027;-72
2022/07/03 08:26:39;;;;;;;6.00;5.70;;;;;;;23.86;49.03;101566.69;6000108;23;20022;-69
2022/07/03 08:29:05;;;;;;;5.82;5.53;;;;;;;24.28;49.36;101574.28;6032530;23;20034;-72
2022/07/03 08:31:32;;;;;;;5.90;5.60;;;;;;;24.41;48.53;101586.50;6027991;23;20003;-71
2022/07/03 08:33:58;;;;;;;6.45;6.05;;;;;;;24.04;49.23;101539.94;6023761;23;20333;-74
2022/07/03 08:36:27;;;;;;;8.45;7.97;;;;;;;24.56;48.33;101587.72;6019300;23;20015;-72
2022/07/03 08:38:54;;;;;;;5.80;5.50;;;;;;;24.18;48.01;101580.69;6027925;23;20421;-74
2022/07/03 08:41:21;;;;;;;5.30;5.10;;;;;;;24.23;48.65;101549.72;6021483;23;20182;-69
2022/07/03 08:43:50;;;;;;;6.70;6.25;;;;;;;24.35;48.10;101554.91;6016405;23;20138;-72
2022/07/03 08:46:18;;;;;;;6.93;6.63;;;;;;;24.79;47.45;101593.50;6017780;23;20557;-71
2022/07/03 08:48:45;;;;;;;5.63;5.40;;;;;;;24.47;46.46;101538.44;6022018;23;20041;-73
2022/07/03 08:51:13;;;;;;;6.03;5.72;;;;;;;24.47;47.05;101561.75;5998641;23;20094;-70
2022/07/03 08:53:40;;;;;;;5.55;5.35;;;;;;;24.71;46.37;101573.78;6016255;23;20028;-76
2022/07/03 08:56:08;;;;;;;5.80;5.50;;;;;;;24.64;47.13;101576.25;6025795;23;20086;-73
2022/07/03 08:58:35;;;;;;;5.78;5.47;;;;;;;24.61;47.21;101547.84;6014444;23;20042;-75
2022/07/03 09:01:02;;;;;;;6.13;5.82;;;;;;;24.87;46.02;101585.53;5997932;23;20091;-69
2022/07/03 09:03:28;;;;;;;6.75;6.43;;;;;;;24.62;46.83;101537.97;6018045;23;20014;-70
2022/07/03 09:05:56;;;;;;;5.50;5.30;;;;;;;25.00;45.90;101587.84;5995776;23;20035;-72
2022/07/03 09:08:23;;;;;;;7.03;6.63;;;;;;;24.84;44.94;101574.28;6013638;23;20373;-73
2022/07/03 09:10:50;;;;;;;5.63;5.40;;;;;;;25.01;45.40;101568.06;6021383;23;20036;-72
2022/07/03 09:13:16;;;;;;;7.10;6.70;;;;;;;24.91;44.20;101596.81;6020655;23;20089;-72
2022/07/03 09:15:44;;;;;;;5.85;5.55;;;;;;;25.08;45.83;101598.69;6019901;23;20117;-69
2022/07/03 09:18:10;;;;;;;5.80;5.50;;;;;;;24.23;45.17;101418.28;6019670;23;20409;-73
2022/07/03 09:20:40;;;;;;;5.88;5.57;;;;;;;25.06;45.90;101592.63;6024864;23;20394;-70
2022/07/03 09:23:18;;;;;;;5.78;5.47;;;;;;;25.08;45.13;101589.78;6017908;23;20082;-69
2022/07/03 09:25:55;;;;;;;5.75;5.45;;;;;;;24.71;45.51;101579.16;6002327;23;20034;-69
2022/07/03 09:28:23;;;;;;;7.22;6.82;;;;;;;24.49;45.88;101571.31;6018130;23;20025;-69
2022/07/03 09:31:00;;;;;;;5.72;5.43;;;;;;;24.49;47.07;101551.72;6023573;23;20015;-69
2022/07/03 09:33:27;;;;;;;6.68;6.38;;;;;;;24.75;46.64;101557.22;6022352;23;21176;-73
2022/07/03 09:35:55;;;;;;;5.82;5.43;;;;;;;24.84;46.48;101523.25;5995114;23;20461;-70
2022/07/03 09:38:22;;;;;;;6.90;6.40;;;;;;;25.47;46.70;101595.69;6020221;23;20198;-74
2022/07/03 09:40:57;;;;;;;5.93;5.63;;;;;;;25.10;44.51;101566.31;5990758;23;20020;-68
2022/07/03 09:43:24;;;;;;;7.45;7.05;;;;;;;25.09;46.46;101581.56;6020182;23;20077;-69
2022/07/03 09:45:59;;;;;;;5.70;5.40;;;;;;;25.00;45.01;101536.00;6002308;23;20041;-72
2022/07/03 09:48:28;;;;;;;7.00;6.70;;;;;;;24.86;45.84;101574.97;6020500;23;20133;-66
2022/07/03 09:51:23;;;;;;;5.63;5.43;;;;;;;25.56;45.86;101588.53;6001588;23;20094;-68
2022/07/03 09:54:01;;;;;;;5.90;5.60;;;;;;;25.71;44.24;101569.97;6026842;23;20057;-71
2022/07/03 09:56:32;;;;;;;5.93;5.63;;;;;;;25.63;45.45;101578.84;6022104;23;20102;-72
2022/07/03 09:59:10;;;;;;;6.00;5.70;;;;;;;24.63;45.29;101443.88;6000594;23;20019;-75
2022/07/03 10:01:45;;;;;;;6.07;5.68;;;;;;;25.58;45.25;101574.91;6024230;23;20063;-72
2022/07/03 10:04:22;;;;;;;7.55;7.15;;;;;;;25.37;45.01;101573.44;5988263;23;20024;-76
2022/07/03 10:06:57;;;;;;;6.22;5.93;;;;;;;25.73;44.40;101580.59;5964318;23;20335;-74
2022/07/03 10:09:28;;;;;;;6.95;6.65;;;;;;;25.85;45.07;101582.84;5988283;23;20023;-68
2022/07/03 10:11:56;;;;;;;6.07;5.67;;;;;;;26.11;45.07;101582.00;5995969;23;20051;-68
2022/07/03 10:14:29;;;;;;;5.88;5.57;;;;;;;26.08;43.40;101563.50;5994847;23;20017;-70
2022/07/03 10:16:58;;;;;;;5.90;5.60;;;;;;;25.55;44.86;101545.69;5998103;23;20086;-73
2022/07/03 10:19:29;;;;;;;7.47;7.07;;;;;;;25.92;43.97;101577.72;5979260;23;20030;-70
2022/07/03 10:21:59;;;;;;;5.65;5.40;;;;;;;25.74;44.89;101576.88;6001024;23;20023;-71
2022/07/03 10:24:28;;;;;;;7.78;7.38;;;;;;;26.09;43.13;101594.78;5963504;23;20012;-72
2022/07/03 10:26:56;;;;;;;6.40;5.90;;;;;;;26.04;43.57;101576.44;5995354;23;20103;-70
2022/07/03 10:29:24;;;;;;;7.10;6.70;;;;;;;25.45;42.64;101455.25;5967730;23;20023;-71
2022/07/03 10:31:55;;;;;;;;;;;;;;;26.19;43.04;101584.75;5994255;23;20034;-71
2022/07/03 10:34:25;;;;;;;7.47;7.07;;;;;;;26.11;43.43;101560.50;5994879;23;20370;-73
2022/07/03 10:37:00;;;;;;;6.10;5.80;;;;;;;26.02;44.44;101559.63;5975663;23;20016;-72
2022/07/03 10:44:45;;;;;;;7.30;6.90;;;;;;;25.64;43.18;101464.09;5989907;23;20464;-73
2022/07/03 10:45:32;;;;;;;6.57;6.28;;;;;;;26.41;43.34;101580.63;5993383;23;20483;-68
2022/07/03 10:47:59;;;;;;;6.00;5.70;;;;;;;26.74;42.51;101579.91;5993728;23;20058;-68
2022/07/03 10:50:25;;;;;;;5.90;5.60;;;;;;;26.58;42.75;101578.88;5995752;23;20291;-70
2022/07/03 10:52:52;;;;;;;5.90;5.60;;;;;;;26.88;41.71;101573.88;5992683;23;20233;-69
2022/07/03 10:55:19;;;;;;;7.20;6.90;;;;;;;26.81;41.59;101567.47;5993697;23;20054;-72
2022/07/03 10:58:08;;;;;;;5.72;5.45;;;;;;;26.98;41.74;101573.72;6000345;23;20078;-70
2022/07/03 11:00:53;;;;;;;6.10;5.80;;;;;;;26.76;42.33;101553.66;6013744;23;20130;-69
2022/07/03 11:03:55;;;;;;;7.20;6.90;;;;;;;26.77;43.18;101564.25;5998686;23;20027;-72
2022/07/03 11:06:44;;;;;;;6.65;6.35;;;;;;;27.11;43.75;101557.06;6019768;23;20018;-72
2022/07/03 11:09:13;;;;;;;6.40;6.10;;;;;;;27.04;41.76;101527.25;5972602;23;20018;-72
2022/07/03 11:11:56;;;;;;;6.10;5.80;;;;;;;26.77;41.77;101525.72;6025406;23;20073;-73
2022/07/03 11:14:23;;;;;;;7.30;6.93;;;;;;;26.74;42.38;101553.84;5994784;23;20024;-71
2022/07/03 11:17:16;;;;;;;5.93;5.63;;;;;;;26.50;42.71;101553.72;6029790;23;20013;-67
2022/07/03 11:19:43;;;;;;;6.13;5.63;;;;;;;26.15;41.56;101526.03;6030497;23;20079;-70
2022/07/03 11:22:20;;;;;;;6.10;5.80;;;;;;;26.53;42.14;101532.72;6029143;23;20050;-72
2022/07/03 11:24:52;;;;;;;5.70;5.40;;;;;;;27.08;42.08;101530.44;6032518;23;20031;-71
2022/07/03 11:27:22;;;;;;;6.85;6.55;;;;;;;27.22;42.63;101540.53;6029867;23;20113;-71
2022/07/03 11:29:54;;;;;;;6.00;5.70;;;;;;;27.14;40.63;101544.13;6030992;23;20023;-72
2022/07/03 11:32:49;;;;;;;6.90;6.60;;;;;;;26.78;41.71;101533.66;5990290;23;20019;-70
2022/07/03 11:35:54;;;;;;;6.82;6.53;;;;;;;26.71;41.09;101531.78;6022015;23;20011;-71
2022/07/03 11:38:24;;;;;;;7.38;6.97;;;;;;;26.86;39.72;101539.03;6006195;23;20085;-69
2022/07/03 11:40:52;;;;;;;5.90;5.60;;;;;;;27.28;40.74;101537.22;6026972;23;20027;-70
2022/07/03 11:43:19;;;;;;;6.55;6.25;;;;;;;26.78;40.31;101395.44;6018626;23;20022;-71
2022/07/03 11:45:47;;;;;;;6.50;5.93;;;;;;;27.43;40.08;101540.06;6000270;23;20050;-70
2022/07/03 11:48:18;;;;;;;6.47;6.18;;;;;;;26.43;40.18;101515.88;6019416;23;20061;-70
2022/07/03 11:50:46;;;;;;;5.93;5.63;;;;;;;26.81;40.53;101529.78;6027725;23;20029;-70